Time;durP1;ratioP1;P1;durP2;ratioP2;P2;SDS_P1;SDS_P2;PMS_P1;PMS_P2;Temp;Humidity;BMP_temperature;BMP_pressure;BME280_temperature;BME280_humidity;BME280_pressure;Samples;Min_cycle;Max_cycle;Signal;HPM_P1;HPM_P2
2021/01/25 00:00:48;;;;;;;18.13;9.32;;;;;;;-146.38;100.00;60817.44;986298;30;20173;-48
2021/01/25 00:02:17;;;;;;;18.48;9.88;;;;;;;-146.38;100.00;60817.44;986202;30;20051;-47
2021/01/25 00:03:47;;;;;;;13.82;7.90;;;;;;;-146.38;100.00;60817.44;986469;30;20036;-48
2021/01/25 00:05:16;;;;;;;10.52;7.00;;;;;;;-146.38;100.00;60817.44;986317;30;20540;-47
2021/01/25 00:06:45;;;;;;;12.52;7.35;;;;;;;-146.38;100.00;60817.44;986267;30;20054;-47
2021/01/25 00:08:14;;;;;;;14.70;7.63;;;;;;;-146.38;100.00;60817.44;986134;30;20050;-47
2021/01/25 00:09:43;;;;;;;10.30;7.55;;;;;;;-146.38;100.00;60817.44;986186;30;20042;-47
2021/01/25 00:11:12;;;;;;;12.98;7.03;;;;;;;-146.38;100.00;60817.44;986567;30;20114;-46
2021/01/25 00:12:41;;;;;;;13.48;7.50;;;;;;;-146.38;100.00;60817.44;986152;30;20036;-48
2021/01/25 00:14:10;;;;;;;12.18;7.47;;;;;;;-146.38;100.00;60817.44;982224;30;20085;-47
2021/01/25 00:15:38;;;;;;;12.45;7.75;;;;;;;-146.38;100.00;60817.44;986252;30;20032;-47
2021/01/25 00:17:07;;;;;;;13.57;6.97;;;;;;;-146.38;100.00;60817.44;986398;30;20035;-45
2021/01/25 00:18:36;;;;;;;12.57;7.25;;;;;;;-146.38;100.00;60817.44;986393;30;20027;-51
2021/01/25 00:20:06;;;;;;;12.52;6.80;;;;;;;-146.38;100.00;60817.44;985889;30;20023;-46
2021/01/25 00:21:35;;;;;;;13.50;7.95;;;;;;;-146.38;100.00;60817.44;986039;30;20569;-47
2021/01/25 00:23:03;;;;;;;11.18;6.70;;;;;;;-146.38;100.00;60817.44;986279;30;20115;-45
2021/01/25 00:24:32;;;;;;;12.02;7.40;;;;;;;-146.38;100.00;60817.44;986365;30;20071;-46
2021/01/25 00:26:02;;;;;;;13.43;7.55;;;;;;;-146.38;100.00;60817.44;986448;30;20035;-46
2021/01/25 00:27:31;;;;;;;11.07;7.10;;;;;;;-146.38;100.00;60817.44;986279;30;20370;-46
2021/01/25 00:29:00;;;;;;;13.02;7.65;;;;;;;-146.38;100.00;60817.44;986233;30;20389;-46
2021/01/25 00:30:29;;;;;;;12.18;7.40;;;;;;;-146.38;100.00;60817.44;986351;30;20081;-46
2021/01/25 00:31:58;;;;;;;10.77;7.22;;;;;;;-146.38;100.00;60817.44;986096;30;20039;-46
2021/01/25 00:33:27;;;;;;;13.70;7.70;;;;;;;-146.38;100.00;60817.44;986223;30;20038;-47
2021/01/25 00:34:56;;;;;;;10.65;6.82;;;;;;;-146.38;100.00;60817.44;986392;30;20052;-45
2021/01/25 00:36:25;;;;;;;10.85;7.05;;;;;;;-146.38;100.00;60817.44;986215;30;20178;-45
2021/01/25 00:37:54;;;;;;;12.50;7.40;;;;;;;-146.38;100.00;60817.44;986081;30;20036;-46
2021/01/25 00:39:23;;;;;;;13.27;8.10;;;;;;;-146.38;100.00;60817.44;986094;30;20371;-45
2021/01/25 00:40:51;;;;;;;11.98;7.78;;;;;;;-146.38;100.00;60817.44;985976;30;20027;-47
2021/01/25 00:42:20;;;;;;;10.55;7.30;;;;;;;-146.38;100.00;60817.44;985474;30;20035;-47
2021/01/25 00:43:49;;;;;;;13.25;8.68;;;;;;;-146.38;100.00;60817.44;986469;30;20396;-46
2021/01/25 00:45:18;;;;;;;13.18;7.90;;;;;;;-146.38;100.00;60817.44;985902;30;20039;-45
2021/01/25 00:46:47;;;;;;;15.52;7.75;;;;;;;-146.38;100.00;60817.44;985912;30;20046;-47
2021/01/25 00:48:16;;;;;;;12.93;7.55;;;;;;;-146.38;100.00;60817.44;986120;30;20482;-46
2021/01/25 00:49:45;;;;;;;15.10;7.60;;;;;;;-146.38;100.00;60817.44;986054;30;20032;-47
2021/01/25 00:51:14;;;;;;;16.25;8.10;;;;;;;-146.38;100.00;60817.44;986320;30;20039;-46
2021/01/25 00:52:43;;;;;;;12.60;7.50;;;;;;;-146.38;100.00;60817.44;986122;30;20093;-49
2021/01/25 00:54:12;;;;;;;16.70;7.75;;;;;;;-146.38;100.00;60817.44;985964;30;20111;-47
2021/01/25 00:55:41;;;;;;;12.40;8.60;;;;;;;-146.38;100.00;60817.44;986295;30;20118;-46
2021/01/25 00:57:10;;;;;;;13.05;8.02;;;;;;;-146.38;100.00;60817.44;985944;30;20101;-47
2021/01/25 00:58:40;;;;;;;13.07;7.75;;;;;;;-146.38;100.00;60817.44;986191;30;20024;-46
2021/01/25 01:00:09;;;;;;;10.02;7.30;;;;;;;-146.38;100.00;60817.44;986247;30;20042;-49
2021/01/25 01:01:38;;;;;;;17.42;8.27;;;;;;;-146.38;100.00;60817.44;986079;30;20042;-48
2021/01/25 01:03:07;;;;;;;11.95;8.40;;;;;;;-146.38;100.00;60817.44;986069;30;20031;-44
2021/01/25 01:04:36;;;;;;;16.17;9.02;;;;;;;-146.38;100.00;60817.44;986149;30;20031;-46
2021/01/25 01:06:06;;;;;;;15.50;8.60;;;;;;;-146.38;100.00;60817.44;985674;30;20036;-45
2021/01/25 01:07:35;;;;;;;13.85;8.57;;;;;;;-146.38;100.00;60817.44;982519;30;20411;-46
2021/01/25 01:09:04;;;;;;;14.88;8.80;;;;;;;-146.38;100.00;60817.44;982049;30;20040;-46
2021/01/25 01:10:33;;;;;;;18.13;8.95;;;;;;;-146.38;100.00;60817.44;984503;30;20525;-46
2021/01/25 01:12:02;;;;;;;16.33;8.68;;;;;;;-146.38;100.00;60817.44;984310;30;20031;-47
2021/01/25 01:13:31;;;;;;;17.38;9.00;;;;;;;-146.38;100.00;60817.44;983438;30;20101;-48
2021/01/25 01:15:00;;;;;;;16.65;8.27;;;;;;;-146.38;100.00;60817.44;983432;30;20121;-46
2021/01/25 01:16:29;;;;;;;12.88;8.63;;;;;;;-146.38;100.00;60817.44;985749;30;20432;-46
2021/01/25 01:17:58;;;;;;;17.50;9.40;;;;;;;-146.38;100.00;60817.44;984532;30;20126;-47
2021/01/25 01:19:27;;;;;;;16.42;9.45;;;;;;;-146.38;100.00;60817.44;984021;30;20032;-46
2021/01/25 01:20:56;;;;;;;27.23;13.20;;;;;;;-146.38;100.00;60817.44;983643;30;20028;-46
2021/01/25 01:22:25;;;;;;;23.25;11.45;;;;;;;-146.38;100.00;60817.44;983797;30;20048;-48
2021/01/25 01:23:54;;;;;;;19.60;10.00;;;;;;;-146.38;100.00;60817.44;985555;30;20160;-48
2021/01/25 01:25:23;;;;;;;17.85;9.20;;;;;;;-146.38;100.00;60817.44;985747;30;20039;-47
2021/01/25 01:26:52;;;;;;;16.05;8.95;;;;;;;-146.38;100.00;60817.44;984785;30;20028;-47
2021/01/25 01:28:21;;;;;;;15.35;8.52;;;;;;;-146.38;100.00;60817.44;982902;30;20201;-49
2021/01/25 01:29:52;;;;;;;16.08;8.98;;;;;;;-146.38;100.00;60817.44;981503;30;20447;-47
2021/01/25 01:31:21;;;;;;;17.15;8.80;;;;;;;-146.38;100.00;60817.44;977928;30;20428;-49
2021/01/25 01:32:50;;;;;;;15.18;8.23;;;;;;;-146.38;100.00;60817.44;980300;30;20490;-46
2021/01/25 01:34:19;;;;;;;14.32;8.35;;;;;;;-146.38;100.00;60817.44;981842;30;20032;-47
2021/01/25 01:35:48;;;;;;;16.15;8.45;;;;;;;-146.38;100.00;60817.44;984358;30;20028;-46
2021/01/25 01:37:17;;;;;;;11.18;7.38;;;;;;;-146.38;100.00;60817.44;984901;30;20030;-46
2021/01/25 01:38:46;;;;;;;12.50;7.82;;;;;;;-146.38;100.00;60817.44;983848;30;20408;-47
2021/01/25 01:40:15;;;;;;;11.90;7.25;;;;;;;-146.38;100.00;60817.44;974832;30;20056;-46
2021/01/25 01:41:44;;;;;;;11.18;7.70;;;;;;;-146.38;100.00;60817.44;974676;30;20388;-46
2021/01/25 01:43:16;;;;;;;12.50;8.35;;;;;;;-146.38;100.00;60817.44;978505;30;20033;-47
2021/01/25 01:44:45;;;;;;;13.15;7.55;;;;;;;-146.38;100.00;60817.44;982059;30;20076;-46
2021/01/25 01:46:15;;;;;;;16.52;7.82;;;;;;;-146.38;100.00;60817.44;984758;30;20043;-47
2021/01/25 01:47:44;;;;;;;12.85;7.95;;;;;;;-146.38;100.00;60817.44;984108;30;20042;-49
2021/01/25 01:49:14;;;;;;;13.27;7.65;;;;;;;-146.38;100.00;60817.44;983127;30;20028;-47
2021/01/25 01:50:43;;;;;;;13.77;8.15;;;;;;;-146.38;100.00;60817.44;982080;30;20103;-47
2021/01/25 01:52:12;;;;;;;14.05;8.23;;;;;;;-146.38;100.00;60817.44;985758;30;20397;-47
2021/01/25 01:53:41;;;;;;;11.00;7.90;;;;;;;-146.38;100.00;60817.44;982046;30;20032;-47
2021/01/25 01:55:10;;;;;;;12.55;7.40;;;;;;;-146.38;100.00;60817.44;982023;30;20478;-47
2021/01/25 01:56:41;;;;;;;13.05;8.50;;;;;;;-146.38;100.00;60817.44;985748;30;20028;-46
2021/01/25 01:58:10;;;;;;;11.55;7.15;;;;;;;-146.38;100.00;60817.44;982155;30;20031;-47
2021/01/25 01:59:39;;;;;;;14.55;8.00;;;;;;;-146.38;100.00;60817.44;985630;30;20082;-47
2021/01/25 02:01:08;;;;;;;14.50;8.70;;;;;;;-146.38;100.00;60817.44;985948;30;20441;-47
2021/01/25 02:02:37;;;;;;;12.27;7.65;;;;;;;-146.38;100.00;60817.44;986049;30;20089;-46
2021/01/25 02:04:06;;;;;;;10.90;7.78;;;;;;;-146.38;100.00;60817.44;986114;30;20110;-47
2021/01/25 02:05:35;;;;;;;11.88;7.55;;;;;;;-146.38;100.00;60817.44;985621;30;20393;-49
2021/01/25 02:07:05;;;;;;;12.57;7.82;;;;;;;-146.38;100.00;60817.44;985727;30;20035;-48
2021/01/25 02:08:36;;;;;;;14.20;8.20;;;;;;;-146.38;100.00;60817.44;985981;30;20036;-49
2021/01/25 02:10:05;;;;;;;11.57;7.72;;;;;;;-146.38;100.00;60817.44;985650;30;20466;-49
2021/01/25 02:11:34;;;;;;;12.10;8.32;;;;;;;-146.38;100.00;60817.44;982058;30;20066;-47
2021/01/25 02:13:03;;;;;;;11.23;7.38;;;;;;;-146.38;100.00;60817.44;981968;30;20036;-47
2021/01/25 02:14:32;;;;;;;13.25;8.00;;;;;;;-146.38;100.00;60817.44;985674;30;20411;-46
2021/01/25 02:16:01;;;;;;;15.57;8.35;;;;;;;-146.38;100.00;60817.44;981955;30;20119;-47
2021/01/25 02:17:30;;;;;;;12.75;7.78;;;;;;;-146.38;100.00;60817.44;978653;30;20033;-47
2021/01/25 02:18:59;;;;;;;14.88;7.22;;;;;;;-146.38;100.00;60817.44;982560;30;20043;-46
2021/01/25 02:20:41;;;;;;;11.40;7.50;;;;;;;-146.38;100.00;60817.44;971802;30;20033;-48
2021/01/25 02:22:15;;;;;;;11.93;7.25;;;;;;;-146.38;100.00;60817.44;979195;30;20033;-47
2021/01/25 02:24:20;;;;;;;11.75;7.20;;;;;;;-146.38;100.00;60817.44;986605;30;20187;-48
2021/01/25 02:26:02;;;;;;;12.10;7.80;;;;;;;-146.38;100.00;60817.44;982725;30;20032;-47
2021/01/25 02:27:49;;;;;;;14.63;7.60;;;;;;;-146.38;100.00;60817.44;980457;30;20040;-47
2021/01/25 02:29:19;;;;;;;13.32;7.40;;;;;;;-146.38;100.00;60817.44;986451;30;20443;-46
2021/01/25 02:30:48;;;;;;;14.40;7.55;;;;;;;-146.38;100.00;60817.44;986546;30;20038;-46
2021/01/25 02:32:17;;;;;;;14.07;8.13;;;;;;;-146.38;100.00;60817.44;979082;30;20086;-46
2021/01/25 02:33:49;;;;;;;21.55;9.43;;;;;;;-146.38;100.00;60817.44;982767;30;20121;-47
2021/01/25 02:35:18;;;;;;;15.90;8.52;;;;;;;-146.38;100.00;60817.44;986315;30;20028;-48
2021/01/25 02:36:47;;;;;;;12.98;8.23;;;;;;;-146.38;100.00;60817.44;986460;30;20111;-48
2021/01/25 02:38:16;;;;;;;12.52;8.13;;;;;;;-146.38;100.00;60817.44;986274;30;20032;-46
2021/01/25 02:39:46;;;;;;;13.88;8.45;;;;;;;-146.38;100.00;60817.44;982602;30;20030;-47
2021/01/25 02:41:15;;;;;;;12.63;8.70;;;;;;;-146.38;100.00;60817.44;982775;30;20047;-47
2021/01/25 02:42:44;;;;;;;13.30;7.88;;;;;;;-146.38;100.00;60817.44;982675;30;20028;-47
2021/01/25 02:44:13;;;;;;;13.23;8.45;;;;;;;-146.38;100.00;60817.44;982623;30;20107;-47
2021/01/25 02:45:42;;;;;;;13.20;8.57;;;;;;;-146.38;100.00;60817.44;986425;30;20106;-47
2021/01/25 02:47:11;;;;;;;12.75;6.90;;;;;;;-146.38;100.00;60817.44;986277;30;20031;-47
2021/01/25 02:48:40;;;;;;;12.50;8.38;;;;;;;-146.38;100.00;60817.44;986349;30;20028;-48
2021/01/25 02:50:09;;;;;;;12.02;7.97;;;;;;;-146.38;100.00;60817.44;982595;30;20524;-46
2021/01/25 02:51:46;;;;;;;11.93;7.60;;;;;;;-146.38;100.00;60817.44;986432;30;20431;-47
2021/01/25 02:53:15;;;;;;;17.35;8.23;;;;;;;-146.38;100.00;60817.44;986602;30;20027;-48
2021/01/25 02:54:44;;;;;;;12.55;7.03;;;;;;;-146.38;100.00;60817.44;986652;30;20042;-46
2021/01/25 02:56:13;;;;;;;11.93;7.60;;;;;;;-146.38;100.00;60817.44;986509;30;20107;-46
2021/01/25 02:57:42;;;;;;;8.77;6.80;;;;;;;-146.38;100.00;60817.44;986150;30;20032;-47
2021/01/25 02:59:11;;;;;;;11.57;6.95;;;;;;;-146.38;100.00;60817.44;986234;30;20458;-46
2021/01/25 03:00:40;;;;;;;11.55;7.22;;;;;;;-146.38;100.00;60817.44;986338;30;20038;-47
2021/01/25 03:02:09;;;;;;;12.43;7.65;;;;;;;-146.38;100.00;60817.44;982676;30;20509;-47
2021/01/25 03:03:38;;;;;;;14.77;7.38;;;;;;;-146.38;100.00;60817.44;986226;30;20118;-47
2021/01/25 03:05:07;;;;;;;10.82;6.95;;;;;;;-146.38;100.00;60817.44;982737;30;20107;-45
2021/01/25 03:06:36;;;;;;;12.82;6.85;;;;;;;-146.38;100.00;60817.44;982555;30;20063;-46
2021/01/25 03:08:05;;;;;;;14.48;7.60;;;;;;;-146.38;100.00;60817.44;986332;30;20027;-46
2021/01/25 03:09:34;;;;;;;10.27;7.32;;;;;;;-146.38;100.00;60817.44;986775;30;20035;-46
2021/01/25 03:11:04;;;;;;;12.27;7.53;;;;;;;-146.38;100.00;60817.44;986355;30;20028;-47
2021/01/25 03:12:32;;;;;;;15.30;8.63;;;;;;;-146.38;100.00;60817.44;986552;30;20533;-45
2021/01/25 03:14:20;;;;;;;16.92;9.00;;;;;;;-146.38;100.00;60817.44;986039;30;20034;-46
2021/01/25 03:15:49;;;;;;;11.77;7.55;;;;;;;-146.38;100.00;60817.44;986451;30;20038;-46
2021/01/25 03:17:18;;;;;;;11.18;7.20;;;;;;;-146.38;100.00;60817.44;986366;30;20031;-47
2021/01/25 03:18:46;;;;;;;11.43;7.10;;;;;;;-146.38;100.00;60817.44;986248;30;20470;-46
2021/01/25 03:20:15;;;;;;;11.18;7.38;;;;;;;-146.38;100.00;60817.44;986579;30;20089;-46
2021/01/25 03:21:48;;;;;;;11.23;6.85;;;;;;;-146.38;100.00;60817.44;986536;30;20043;-47
2021/01/25 03:23:17;;;;;;;12.43;6.85;;;;;;;-146.38;100.00;60817.44;986782;30;20390;-46
2021/01/25 03:24:46;;;;;;;11.52;6.25;;;;;;;-146.38;100.00;60817.44;986609;30;20143;-46
2021/01/25 03:26:15;;;;;;;11.23;6.35;;;;;;;-146.38;100.00;60817.44;986484;30;20102;-46
2021/01/25 03:27:45;;;;;;;9.55;6.72;;;;;;;-146.38;100.00;60817.44;986441;30;20497;-46
2021/01/25 03:29:14;;;;;;;10.88;6.40;;;;;;;-146.38;100.00;60817.44;986014;30;20473;-45
2021/01/25 03:30:43;;;;;;;10.13;6.22;;;;;;;-146.38;100.00;60817.44;986243;30;20035;-47
2021/01/25 03:32:12;;;;;;;8.73;6.25;;;;;;;-146.38;100.00;60817.44;986590;30;20024;-46
2021/01/25 03:33:41;;;;;;;14.57;6.70;;;;;;;-146.38;100.00;60817.44;986445;30;20038;-49
2021/01/25 03:35:10;;;;;;;10.70;6.43;;;;;;;-146.38;100.00;60817.44;986118;30;20035;-48
2021/01/25 03:36:39;;;;;;;11.15;6.75;;;;;;;-146.38;100.00;60817.44;986144;30;20393;-46
2021/01/25 03:38:08;;;;;;;10.65;6.60;;;;;;;-146.38;100.00;60817.44;986609;30;20024;-46
2021/01/25 03:39:37;;;;;;;11.85;6.40;;;;;;;-146.38;100.00;60817.44;986165;30;20083;-46
2021/01/25 03:41:07;;;;;;;10.70;6.50;;;;;;;-146.38;100.00;60817.44;986307;30;20540;-46
2021/01/25 03:42:36;;;;;;;8.88;6.50;;;;;;;-146.38;100.00;60817.44;986551;30;20451;-48
2021/01/25 03:44:05;;;;;;;11.10;6.05;;;;;;;-146.38;100.00;60817.44;986568;30;20081;-46
2021/01/25 03:45:34;;;;;;;10.07;6.55;;;;;;;-146.38;100.00;60817.44;986505;30;20149;-46
2021/01/25 03:47:02;;;;;;;8.10;6.65;;;;;;;-146.38;100.00;60817.44;986378;30;20393;-45
2021/01/25 03:48:31;;;;;;;10.07;6.60;;;;;;;-146.38;100.00;60817.44;986414;30;20386;-46
2021/01/25 03:50:00;;;;;;;9.13;5.70;;;;;;;-146.38;100.00;60817.44;986505;30;20031;-47
2021/01/25 03:51:29;;;;;;;9.82;6.00;;;;;;;-146.38;100.00;60817.44;986455;30;20110;-45
2021/01/25 03:53:02;;;;;;;10.18;5.78;;;;;;;-146.38;100.00;60817.44;986288;30;20107;-47
2021/01/25 03:54:31;;;;;;;11.68;6.65;;;;;;;-146.38;100.00;60817.44;986376;30;20024;-46
2021/01/25 03:56:00;;;;;;;10.27;6.28;;;;;;;-146.38;100.00;60817.44;986344;30;20088;-46
2021/01/25 03:57:29;;;;;;;11.23;6.15;;;;;;;-146.38;100.00;60817.44;986364;30;20092;-46
2021/01/25 03:58:58;;;;;;;14.68;6.78;;;;;;;-146.38;100.00;60817.44;986408;30;20031;-46
2021/01/25 04:00:30;;;;;;;8.82;5.93;;;;;;;-146.38;100.00;60817.44;986484;30;20031;-47
2021/01/25 04:01:59;;;;;;;10.07;6.20;;;;;;;-146.38;100.00;60817.44;986391;30;20032;-49
2021/01/25 04:03:28;;;;;;;10.25;6.30;;;;;;;-146.38;100.00;60817.44;986315;30;20036;-47
2021/01/25 04:04:56;;;;;;;9.25;5.88;;;;;;;-146.38;100.00;60817.44;986345;30;20491;-46
2021/01/25 04:06:25;;;;;;;9.73;6.05;;;;;;;-146.38;100.00;60817.44;986417;30;20040;-47
2021/01/25 04:07:54;;;;;;;8.00;5.28;;;;;;;-146.38;100.00;60817.44;986091;30;20480;-46
2021/01/25 04:09:23;;;;;;;7.78;5.53;;;;;;;-146.38;100.00;60817.44;986459;30;20118;-46
2021/01/25 04:10:52;;;;;;;9.43;5.72;;;;;;;-146.38;100.00;60817.44;986271;30;20024;-46
2021/01/25 04:12:22;;;;;;;10.45;6.00;;;;;;;-146.38;100.00;60817.44;986030;30;20028;-47
2021/01/25 04:13:51;;;;;;;8.35;4.95;;;;;;;-146.38;100.00;60817.44;986486;30;20031;-46
2021/01/25 04:15:20;;;;;;;9.20;5.80;;;;;;;-146.38;100.00;60817.44;986471;30;20027;-46
2021/01/25 04:16:49;;;;;;;9.10;5.53;;;;;;;-146.38;100.00;60817.44;986163;30;20027;-49
2021/01/25 04:18:18;;;;;;;8.00;5.35;;;;;;;-146.38;100.00;60817.44;986019;30;20035;-46
2021/01/25 04:19:47;;;;;;;11.55;5.50;;;;;;;-146.38;100.00;60817.44;986399;30;20046;-46
2021/01/25 04:21:16;;;;;;;11.93;5.78;;;;;;;-146.38;100.00;60817.44;986307;30;20032;-48
2021/01/25 04:22:45;;;;;;;10.20;5.72;;;;;;;-146.38;100.00;60817.44;986324;30;20032;-46
2021/01/25 04:24:14;;;;;;;8.50;5.50;;;;;;;-146.38;100.00;60817.44;986520;30;20058;-44
2021/01/25 04:25:43;;;;;;;9.38;5.18;;;;;;;-146.38;100.00;60817.44;986394;30;20043;-48
2021/01/25 04:27:13;;;;;;;9.30;5.35;;;;;;;-146.38;100.00;60817.44;986511;30;20050;-49
2021/01/25 04:28:45;;;;;;;9.05;5.88;;;;;;;-146.38;100.00;60817.44;986549;30;20028;-45
2021/01/25 04:30:14;;;;;;;8.82;5.47;;;;;;;-146.38;100.00;60817.44;986284;30;20084;-46
2021/01/25 04:31:43;;;;;;;10.50;5.90;;;;;;;-146.38;100.00;60817.44;986410;30;20071;-45
2021/01/25 04:33:12;;;;;;;8.63;5.55;;;;;;;-146.38;100.00;60817.44;986421;30;20033;-46
2021/01/25 04:34:41;;;;;;;10.05;5.25;;;;;;;-146.38;100.00;60817.44;986004;30;20379;-44
2021/01/25 04:36:11;;;;;;;10.40;6.03;;;;;;;-146.38;100.00;60817.44;986189;30;20027;-45
2021/01/25 04:37:40;;;;;;;7.05;4.50;;;;;;;-146.38;100.00;60817.44;986395;30;20035;-45
2021/01/25 04:39:09;;;;;;;8.00;4.60;;;;;;;-146.38;100.00;60817.44;986604;30;20554;-46
2021/01/25 04:40:38;;;;;;;8.80;5.40;;;;;;;-146.38;100.00;60817.44;982080;30;20044;-49
2021/01/25 04:42:07;;;;;;;8.00;4.70;;;;;;;-146.38;100.00;60817.44;982390;30;20111;-47
2021/01/25 04:43:36;;;;;;;7.10;5.00;;;;;;;-146.38;100.00;60817.44;986157;30;20028;-49
2021/01/25 04:45:05;;;;;;;7.38;5.03;;;;;;;-146.38;100.00;60817.44;986365;30;20035;-47
2021/01/25 04:46:34;;;;;;;6.60;4.68;;;;;;;-146.38;100.00;60817.44;986116;30;20481;-46
2021/01/25 04:48:04;;;;;;;11.10;5.07;;;;;;;-146.38;100.00;60817.44;981999;30;20115;-47
2021/01/25 04:49:32;;;;;;;12.73;4.70;;;;;;;-146.38;100.00;60817.44;978745;30;20454;-46
2021/01/25 04:51:02;;;;;;;8.05;4.85;;;;;;;-146.38;100.00;60817.44;982298;30;20107;-49
2021/01/25 04:52:31;;;;;;;8.25;4.78;;;;;;;-146.38;100.00;60817.44;985984;30;20390;-46
2021/01/25 04:54:00;;;;;;;7.97;5.28;;;;;;;-146.38;100.00;60817.44;986206;30;20390;-46
2021/01/25 04:55:29;;;;;;;7.82;5.30;;;;;;;-146.38;100.00;60817.44;985989;30;20027;-45
2021/01/25 04:56:58;;;;;;;6.93;4.88;;;;;;;-146.38;100.00;60817.44;985877;30;20053;-46
2021/01/25 04:58:27;;;;;;;10.07;5.05;;;;;;;-146.38;100.00;60817.44;985954;30;20446;-45
2021/01/25 04:59:56;;;;;;;7.10;4.97;;;;;;;-146.38;100.00;60817.44;978818;30;20029;-46
2021/01/25 05:01:25;;;;;;;7.40;4.80;;;;;;;-146.38;100.00;60817.44;982339;30;20059;-47
2021/01/25 05:02:54;;;;;;;7.45;4.75;;;;;;;-146.38;100.00;60817.44;986007;30;20065;-46
2021/01/25 05:04:23;;;;;;;7.82;5.03;;;;;;;-146.38;100.00;60817.44;986223;30;20028;-46
2021/01/25 05:05:52;;;;;;;6.75;4.68;;;;;;;-146.38;100.00;60817.44;986329;30;20042;-45
2021/01/25 05:07:21;;;;;;;6.68;4.53;;;;;;;-146.38;100.00;60817.44;985848;30;20028;-47
2021/01/25 05:08:50;;;;;;;9.50;5.18;;;;;;;-146.38;100.00;60817.44;986035;30;20036;-47
2021/01/25 05:10:19;;;;;;;6.93;4.80;;;;;;;-146.38;100.00;60817.44;986398;30;20470;-46
2021/01/25 05:11:57;;;;;;;7.28;4.50;;;;;;;-146.38;100.00;60817.44;986291;30;20032;-46
2021/01/25 05:13:39;;;;;;;7.78;4.78;;;;;;;-146.38;100.00;60817.44;986318;30;20508;-47
2021/01/25 05:15:09;;;;;;;8.07;4.57;;;;;;;-146.38;100.00;60817.44;986421;30;20027;-46
2021/01/25 05:16:37;;;;;;;7.53;4.90;;;;;;;-146.38;100.00;60817.44;986394;30;20054;-47
2021/01/25 05:18:11;;;;;;;6.68;4.50;;;;;;;-146.38;100.00;60817.44;985855;30;20032;-47
2021/01/25 05:19:44;;;;;;;10.63;5.53;;;;;;;-146.38;100.00;60817.44;986097;30;20481;-46
2021/01/25 05:21:13;;;;;;;9.55;5.10;;;;;;;-146.38;100.00;60817.44;986247;30;20035;-46
2021/01/25 05:22:42;;;;;;;11.73;6.25;;;;;;;-146.38;100.00;60817.44;986346;30;20107;-47
2021/01/25 05:24:11;;;;;;;9.88;7.05;;;;;;;-146.38;100.00;60817.44;986322;30;20066;-49
2021/01/25 05:25:41;;;;;;;12.38;8.60;;;;;;;-146.38;100.00;60817.44;986370;30;20035;-46
2021/01/25 05:27:10;;;;;;;11.52;7.88;;;;;;;-146.38;100.00;60817.44;986037;30;20039;-48
2021/01/25 05:28:40;;;;;;;10.65;6.90;;;;;;;-146.38;100.00;60817.44;985809;30;20027;-51
2021/01/25 05:30:09;;;;;;;9.75;6.65;;;;;;;-146.38;100.00;60817.44;985938;30;20040;-47
2021/01/25 05:31:38;;;;;;;9.10;6.35;;;;;;;-146.38;100.00;60817.44;982540;30;20047;-49
2021/01/25 05:33:07;;;;;;;11.25;7.30;;;;;;;-146.38;100.00;60817.44;986164;30;20032;-48
2021/01/25 05:34:36;;;;;;;12.25;6.70;;;;;;;-146.38;100.00;60817.44;986069;30;20137;-47
2021/01/25 05:36:06;;;;;;;9.45;5.85;;;;;;;-146.38;100.00;60817.44;986327;30;20066;-45
2021/01/25 05:37:34;;;;;;;7.97;5.53;;;;;;;-146.38;100.00;60817.44;985744;30;20063;-47
2021/01/25 05:39:54;;;;;;;11.43;5.80;;;;;;;-146.38;100.00;60817.44;982127;30;20481;-46
2021/01/25 05:41:23;;;;;;;7.57;5.32;;;;;;;-146.38;100.00;60817.44;985579;30;20028;-48
2021/01/25 05:42:56;;;;;;;10.82;5.90;;;;;;;-146.38;100.00;60817.44;985894;30;20028;-47
2021/01/25 05:44:32;;;;;;;9.40;5.82;;;;;;;-146.38;100.00;60817.44;986191;30;20397;-48
2021/01/25 05:46:08;;;;;;;8.02;5.65;;;;;;;-146.38;100.00;60817.44;986211;30;20035;-46
2021/01/25 05:47:54;;;;;;;11.98;5.65;;;;;;;-146.38;100.00;60817.44;985885;30;20107;-46
2021/01/25 05:49:26;;;;;;;8.63;5.75;;;;;;;-146.38;100.00;60817.44;986045;30;20566;-47
2021/01/25 05:50:55;;;;;;;7.88;5.20;;;;;;;-146.38;100.00;60817.44;986257;30;20115;-47
2021/01/25 05:52:28;;;;;;;8.43;5.97;;;;;;;-146.38;100.00;60817.44;986449;30;20031;-47
2021/01/25 05:54:02;;;;;;;7.10;5.20;;;;;;;-146.38;100.00;60817.44;986761;30;20234;-47
2021/01/25 05:55:31;;;;;;;8.13;5.35;;;;;;;-146.38;100.00;60817.44;986671;30;20028;-48
2021/01/25 05:57:03;;;;;;;7.07;5.00;;;;;;;-146.38;100.00;60817.44;986759;30;20039;-50
2021/01/25 05:58:32;;;;;;;12.18;5.75;;;;;;;-146.38;100.00;60817.44;986772;30;20147;-49
2021/01/25 06:00:01;;;;;;;11.55;6.38;;;;;;;-146.38;100.00;60817.44;986916;30;20036;-47
2021/01/25 06:01:30;;;;;;;9.25;5.85;;;;;;;-146.38;100.00;60817.44;986211;30;20042;-46
2021/01/25 06:02:59;;;;;;;8.18;5.72;;;;;;;-146.38;100.00;60817.44;986759;30;20030;-46
2021/01/25 06:04:31;;;;;;;9.23;6.07;;;;;;;-146.38;100.00;60817.44;986789;30;20389;-48
2021/01/25 06:06:03;;;;;;;9.68;6.63;;;;;;;-146.38;100.00;60817.44;982722;30;20036;-47
2021/01/25 06:07:32;;;;;;;11.15;6.97;;;;;;;-146.38;100.00;60817.44;979408;30;20036;-47
2021/01/25 06:09:23;;;;;;;10.70;6.50;;;;;;;-146.38;100.00;60817.44;983164;30;20390;-47
2021/01/25 06:11:21;;;;;;;12.60;7.22;;;;;;;-146.38;100.00;60817.44;975638;30;20029;-46
2021/01/25 06:13:03;;;;;;;12.57;7.00;;;;;;;-146.38;100.00;60817.44;975105;30;20052;-46
2021/01/25 06:14:51;;;;;;;;;;;;;;;-146.38;100.00;60817.44;972348;30;20037;-45
2021/01/25 06:16:21;;;;;;;10.90;6.53;;;;;;;-146.38;100.00;60817.44;973853;30;19919;-46
2021/01/25 06:17:50;;;;;;;9.90;6.85;;;;;;;-146.38;100.00;60817.44;975322;30;20107;-47
2021/01/25 06:19:21;;;;;;;8.27;5.60;;;;;;;-146.38;100.00;60817.44;975455;30;20033;-47
2021/01/25 06:20:50;;;;;;;10.52;6.25;;;;;;;-146.38;100.00;60817.44;975447;30;20160;-46
2021/01/25 06:22:23;;;;;;;12.10;6.60;;;;;;;-146.38;100.00;60817.44;975449;30;20037;-46
2021/01/25 06:23:52;;;;;;;11.20;6.53;;;;;;;-146.38;100.00;60817.44;972034;30;20040;-44
2021/01/25 06:25:21;;;;;;;8.98;5.85;;;;;;;-146.38;100.00;60817.44;970548;30;20403;-45
2021/01/25 06:26:50;;;;;;;8.25;6.15;;;;;;;-146.38;100.00;60817.44;973215;30;20047;-45
2021/01/25 06:28:20;;;;;;;8.88;5.00;;;;;;;-146.38;100.00;60817.44;975491;30;20448;-45
2021/01/25 06:29:50;;;;;;;14.10;5.80;;;;;;;-146.38;100.00;60817.44;979274;30;20506;-45
2021/01/25 06:31:20;;;;;;;10.32;6.10;;;;;;;-146.38;100.00;60817.44;976125;30;20082;-47
2021/01/25 06:32:53;;;;;;;14.73;6.50;;;;;;;-146.38;100.00;60817.44;980380;30;20055;-46
2021/01/25 06:34:25;;;;;;;10.02;6.15;;;;;;;-146.38;100.00;60817.44;973523;30;20037;-47
2021/01/25 06:35:54;;;;;;;11.60;5.78;;;;;;;-146.38;100.00;60817.44;973942;30;20061;-46
2021/01/25 06:37:23;;;;;;;11.35;6.30;;;;;;;-146.38;100.00;60817.44;974372;30;20056;-46
2021/01/25 06:38:52;;;;;;;8.75;6.53;;;;;;;-146.38;100.00;60817.44;969740;30;20034;-45
2021/01/25 06:40:25;;;;;;;9.52;5.78;;;;;;;-146.38;100.00;60817.44;972726;30;20045;-46
2021/01/25 06:42:00;;;;;;;11.45;6.28;;;;;;;-146.38;100.00;60817.44;976409;30;20068;-46
2021/01/25 06:43:30;;;;;;;11.07;5.93;;;;;;;-146.38;100.00;60817.44;977536;30;20137;-46
2021/01/25 06:45:00;;;;;;;9.65;5.97;;;;;;;-146.38;100.00;60817.44;973217;30;20061;-47
2021/01/25 06:46:30;;;;;;;7.68;5.72;;;;;;;-146.38;100.00;60817.44;966804;30;20109;-45
2021/01/25 06:48:02;;;;;;;12.30;6.22;;;;;;;-146.38;100.00;60817.44;967903;30;20082;-46
2021/01/25 06:49:31;;;;;;;13.10;6.60;;;;;;;-146.38;100.00;60817.44;974484;30;20420;-46
2021/01/25 06:51:04;;;;;;;10.20;6.47;;;;;;;-146.38;100.00;60817.44;979815;30;20040;-50
2021/01/25 06:52:39;;;;;;;10.52;6.60;;;;;;;-146.38;100.00;60817.44;981998;30;20028;-47